Flight Track Log - Related Links

Times and Time Zones

All times are in EDT time to prevent confusion due to time zone crossing. See the SKW5631 flight status page for this flight to view local times or setup timezone preferences in your user account.


Time Position Orientation Groundspeed Altitude Reporting Facility
EDT Latitude Longitude Course Direction KTS MPH feet Rate Location/Type
Wed 10:18:13 PM 37.6333 -122.3667 138° Southeast 161 185 700  Level Northern Cal TRACON
Wed 10:19:13 PM 37.6833 -122.3667 360° North 203 234 2,400 2,120 Climbing Northern Cal TRACON
Wed 10:20:26 PM 37.7083 -122.4592 289° West 235 270 5,400 2,597 Climbing Oakland Center
Wed 10:21:00 PM 37.2052 -121.8610 122° Southeast  Level Estimated
Wed 10:21:27 PM 37.6831 -122.5383 248° West 258 297 8,200  Level Oakland Center
Wed 10:22:00 PM 37.1013 -121.7333 141° Southeast  Level Estimated
Wed 10:22:28 PM 37.6083 -122.5011 158° South 306 352 10,500  Level Oakland Center
Wed 10:23:00 PM 36.9974 -121.6060 138° Southeast  Level Estimated
Wed 10:23:30 PM 37.5292 -122.4292 144° Southeast 347 399 11,700  Level Oakland Center
Wed 10:24:31 PM 37.4472 -122.3425 140° Southeast 381 438 13,200 1,623 Climbing Oakland Center
Wed 10:25:32 PM 37.3650 -122.2511 139° Southeast 394 453 15,000 1,770 Climbing Oakland Center
Wed 10:26:33 PM 37.2825 -122.1608 139° Southeast 394 453 16,800 1,512 Climbing Oakland Center
Wed 10:27:35 PM 37.1975 -122.0706 140° Southeast 400 460 18,100 1,220 Climbing Oakland Center
Wed 10:28:36 PM 37.1114 -121.9756 139° Southeast 411 473 19,300 1,426 Climbing Oakland Center
Wed 10:29:37 PM 37.0072 -121.8628 139° Southeast 413 475 21,000 1,377 Climbing Oakland Center
Wed 10:30:38 PM 36.9183 -121.7706 140° Southeast 416 479 22,100 1,073 Climbing Oakland Center
Wed 10:31:40 PM 36.8294 -121.6756 139° Southeast 421 484 23,200 976 Climbing Oakland Center
Wed 10:32:41 PM 36.7450 -121.5875 140° Southeast 424 488 24,100 984 Climbing Oakland Center
Wed 10:33:42 PM 36.6556 -121.4903 139° Southeast 428 493 25,200 1,024 Climbing Oakland Center
Wed 10:34:44 PM 36.5631 -121.3958 141° Southeast 431 496 26,200 878 Climbing Oakland Center
Wed 10:35:45 PM 36.4533 -121.2778 139° Southeast 436 502 27,000 393 Climbing Oakland Center
Wed 10:36:46 PM 36.3572 -121.1758 139° Southeast 451 519 27,000  Level Oakland Center
Wed 10:37:47 PM 36.2581 -121.0714 140° Southeast 467 537 27,000  Level Oakland Center
Wed 10:38:49 PM 36.1572 -120.9650 140° Southeast 476 548 27,000  Level Oakland Center
Wed 10:39:50 PM 36.0558 -120.8569 139° Southeast 480 552 27,000  Level Oakland Center
Wed 10:40:51 PM 35.9533 -120.7489 140° Southeast 484 557 27,000  Level Oakland Center
Wed 10:41:53 PM 35.8503 -120.6422 140° Southeast 485 558 27,000  Level Oakland Center
Wed 10:42:54 PM 35.7461 -120.5342 140° Southeast 488 562 27,000  Level Oakland Center
Wed 10:43:55 PM 35.6425 -120.4267 140° Southeast 487 560 27,000  Level Oakland Center
Wed 10:44:28 PM 35.5861 -120.3689 140° Southeast 484 557 27,000 -316 Level Los Angeles Center
Wed 10:45:30 PM 35.4836 -120.2633 140° Southeast 480 552 26,500 -488 Descending Los Angeles Center
Wed 10:46:31 PM 35.3856 -120.1617 140° Southeast 465 535 26,000 -488 Descending Los Angeles Center
Wed 10:47:33 PM 35.2819 -120.0572 141° Southeast 435 501 25,500 -484 Descending Los Angeles Center
Wed 10:48:35 PM 35.1906 -119.9642 140° Southeast 428 493 25,000 -532 Descending Los Angeles Center
Wed 10:49:37 PM 35.0981 -119.8697 140° Southeast 431 496 24,400 -1,122 Descending Los Angeles Center
Wed 10:50:38 PM 35.0019 -119.7414 132° Southeast 428 493 22,700 -1,707 Descending Los Angeles Center
Wed 10:51:40 PM 34.9261 -119.6392 132° Southeast 410 472 20,900 -1,742 Descending Los Angeles Center
Wed 10:52:42 PM 34.8519 -119.5381 132° Southeast 401 461 19,100 -1,805 Descending Los Angeles Center
Wed 10:53:43 PM 34.7778 -119.4378 132° Southeast 400 460 17,200 -1,805 Descending Los Angeles Center
Wed 10:54:45 PM 34.7056 -119.3419 132° Southeast 387 445 15,400 -1,694 Descending Los Angeles Center
Wed 10:55:47 PM 34.6372 -119.2500 132° Southeast 370 426 13,700 -1,463 Descending Los Angeles Center
Wed 10:56:48 PM 34.5636 -119.1567 134° Southeast 337 388 12,400 -1,171 Descending Los Angeles Center
Wed 10:57:50 PM 34.5025 -119.0744 132° Southeast 330 380 11,300 -677 Descending Los Angeles Center
Wed 10:58:52 PM 34.4425 -118.9953 133° Southeast 318 366 11,000 -706 Descending Los Angeles Center
Wed 11:00:06 PM 34.3839 -118.9164 132° Southeast 313 360 9,700 -1,500 Descending Los Angeles Center
Wed 11:01:08 PM 34.3047 -118.8489 145° Southeast 294 338 7,600 -1,756 Descending Los Angeles Center
Wed 11:02:09 PM 34.2478 -118.7914 140° Southeast 274 315 6,100 -1,220 Descending Los Angeles Center
Wed 11:03:11 PM 34.2206 -118.7172 114° Southeast 251 289 5,100 -1,024 Descending Los Angeles Center
Wed 11:04:12 PM 34.2008 -118.6322 106° East 233 268 4,000 -537 Descending Los Angeles Center
Wed 11:05:14 PM 34.2003 -118.5694 91° East 207 238 4,000 -387 Level Los Angeles Center
Wed 11:06:16 PM 34.2011 -118.5172 89° East 176 203 3,200 -780 Descending Los Angeles Center
Wed 11:07:17 PM 34.2000 -118.4664 91° East 158 182 2,400 -780 Descending Los Angeles Center
Wed 11:08:19 PM 34.1992 -118.4186 91° East 148 170 1,600 -435 Descending Los Angeles Center
Wed 11:09:21 PM 34.1983 -118.3717 91° East 148 170 1,500 -97 Descending Los Angeles Center

Login

Don't have an account? Register now (free) for customized features, flight alerts, and more!